Latest Weather Observations for Giles*

IDD60801

Issued at 11:01 am CST Tuesday 28 July 2015 (issued every 30 minutes, with the page automatically refreshed every 10 minutes)

About weather observations | Map of weather stations | Latest weather observations for NT | Other Formats
Station Details ID: 013017 Name: GILES METEOROLOGICAL OFFICE Lat: -25.03 Lon: 128.30 Height: 598.0 m
Data from the previous 72 hours. | See also: Recent months at Giles*

* Giles observations are collected in the South Australia time zone, which includes daylight saving in the summer period. Therefore, Rain since 9am value is with respect to South Australia local time.

Date/Time
CST
Temp
°C
App
Temp
°C
Dew
Point
Rel
Hum
%
Delta-T
°C
Wind Press
QNH
hPa
Press
MSL
hPa
Rain
since 9 am
mm
Dir
 
Spd
km/h
Gust
km/h
Spd
kts
Gust
kts
28/10:30am 12.2 4.6 -2.2 36 5.8 ENE 28 35 15 19 1031.3 1030.8 0.0
28/10:00am 11.6 4.9 -1.4 40 5.3 ENE 24 35 13 19 1031.1 1030.5 0.0
28/09:30am 10.5 3.8 -1.1 44 4.7 ENE 24 39 13 21 1030.9 1030.3 0.0
28/09:00am 9.8 2.4 -0.5 48 4.2 ENE 28 43 15 23 1030.7 1030.1 0.0
28/08:30am 9.1 2.1 -0.2 52 3.8 ENE 26 35 14 19 1030.4 1029.8 0.0
28/08:00am 7.9 3.2 0.6 60 3.0 ENE 15 24 8 13 1030.1 1029.5 0.0
28/07:30am 7.8 2.8 1.1 62 2.8 ENE 17 22 9 12 1029.6 1029.0 0.0
28/07:00am 7.9 2.9 1.5 64 2.7 ENE 17 26 9 14 1029.5 1028.9 0.0
28/06:30am 8.3 3.0 1.7 63 2.8 ENE 19 30 10 16 1029.6 1029.0 0.0
28/05:30am 8.4 3.1 2.1 64 2.7 ENE 19 28 10 15 1029.4 1028.8 0.0
28/05:00am 8.5 2.9 1.4 61 3.0 E 20 28 11 15 1029.4 1028.8 0.0
28/04:30am 9.7 5.9 1.5 56 3.5 ENE 11 24 6 13 1029.5 1028.9 0.0
28/04:00am 9.4 5.2 1.7 58 3.3 ENE 13 17 7 9 1029.3 1028.7 0.0
28/03:30am 10.4 4.4 1.3 53 3.9 ENE 22 32 12 17 1029.3 1028.7 0.0
28/03:00am 10.7 4.4 1.4 52 4.0 ENE 24 35 13 19 1029.5 1028.9 0.0
28/02:30am 11.0 4.6 0.9 49 4.3 E 24 35 13 19 1030.0 1029.4 0.0
28/02:00am 9.4 5.1 1.1 56 3.5 E 13 20 7 11 1030.3 1029.7 0.0
28/01:30am 8.4 4.9 1.0 59 3.1 E 9 15 5 8 1030.0 1029.4 0.0
28/01:00am 9.4 5.1 0.8 55 3.6 E 13 17 7 9 1029.9 1029.3 0.0
28/12:30am 9.5 6.4 1.2 56 3.5 ENE 7 13 4 7 1030.0 1029.4 0.0
28/12:00am 10.6 5.9 0.7 50 4.2 E 15 24 8 13 1030.1 1029.5 0.0
 
Date/Time
CST
Temp
°C
App
Temp
°C
Dew
Point
Rel
Hum
%
Delta-T
°C
Wind Press
QNH
hPa
Press
MSL
hPa
Rain
since 9 am
mm
Dir
 
Spd
km/h
Gust
km/h
Spd
kts
Gust
kts
27/11:30pm 11.5 5.9 0.1 45 4.8 ESE 19 24 10 13 1030.3 1029.7 0.0
27/11:00pm 11.3 6.1 0.4 47 4.6 ESE 17 22 9 12 1030.5 1029.9 0.0
27/10:30pm 11.6 6.8 0.2 45 4.8 ESE 15 22 8 12 1030.8 1030.2 0.0
27/10:00pm 11.3 6.5 0.4 47 4.6 ESE 15 19 8 10 1030.9 1030.3 0.0
27/09:30pm 11.8 7.4 0.5 46 4.8 SE 13 17 7 9 1031.0 1030.4 0.0
27/09:00pm 12.5 7.7 0.3 43 5.2 ESE 15 19 8 10 1030.8 1030.2 0.0
27/08:30pm 12.9 8.5 0.3 42 5.4 SE 13 15 7 8 1030.8 1030.2 0.0
27/08:00pm 14.1 10.0 -0.1 37 6.1 ESE 11 15 6 8 1030.5 1029.9 0.0
27/07:30pm 14.8 10.3 -0.6 35 6.6 ESE 13 15 7 8 1030.1 1029.5 0.0
27/07:00pm 15.8 10.4 -1.4 31 7.3 SE 17 20 9 11 1029.5 1028.9 0.0
27/06:30pm 16.7 11.8 -0.8 30 7.6 ESE 15 20 8 11 1029.5 1028.9 0.0
27/06:00pm 17.9 11.9 -1.6 26 8.4 ESE 20 28 11 15 1029.0 1028.4 0.0
27/05:30pm 18.7 12.3 -1.9 24 8.9 ESE 22 30 12 16 1028.9 1028.3 0.0
27/05:00pm 19.0 12.7 -0.9 26 8.8 SE 22 30 12 16 1028.9 1028.3 0.0
27/04:30pm 19.4 14.1 -0.5 26 8.9 ESE 17 22 9 12 1028.6 1028.0 0.0
27/04:00pm 19.5 13.9 -0.3 26 8.9 ESE 19 32 10 17 1028.5 1027.9 0.0
27/03:30pm 19.2 13.9 -0.5 26 8.8 E 17 28 9 15 1028.8 1028.2 0.0
27/03:00pm 19.1 13.8 -0.4 27 8.7 ESE 17 24 9 13 1028.9 1028.3 0.0
27/02:30pm 18.6 13.4 -0.2 28 8.4 E 17 30 9 16 1029.2 1028.6 0.0
27/02:00pm 18.0 12.5 0.4 30 8.0 ENE 19 26 10 14 1029.5 1028.9 0.0
27/01:30pm 17.5 11.4 0.6 32 7.6 E 22 35 12 19 1029.9 1029.3 0.0
27/01:00pm 17.3 10.8 0.6 32 7.5 E 24 32 13 17 1030.2 1029.6 0.0
27/12:30pm 16.3 9.9 0.9 35 6.9 E 24 37 13 20 1030.8 1030.2 0.0
27/12:00pm 15.8 8.7 1.3 37 6.5 E 28 39 15 21 1031.0 1030.4 0.0
27/11:30am 15.4 8.2 0.7 37 6.5 E 28 39 15 21 1031.6 1031.0 0.0
27/11:00am 14.2 7.5 1.3 41 5.8 ENE 26 35 14 19 1031.8 1031.2 0.0
27/10:30am 13.8 5.3 0.7 41 5.7 E 35 48 19 26 1032.0 1031.4 0.0
27/10:00am 12.2 5.6 2.0 49 4.5 ESE 26 35 14 19 1032.1 1031.5 0.0
27/09:30am 11.1 4.5 1.9 53 4.0 ESE 26 33 14 18 1032.0 1031.4 0.0
27/09:00am 9.7 3.9 2.1 59 3.3 ESE 22 30 12 16 1031.6 1031.0 0.4
27/08:30am 8.2 3.0 2.4 67 2.5 ESE 19 24 10 13 1031.6 1031.0 0.4
27/08:00am 6.9 1.7 2.4 73 1.9 ESE 19 24 10 13 1031.3 1030.8 0.4
27/07:30am 6.2 1.0 2.7 78 1.5 SE 19 24 10 13 1031.2 1030.6 0.4
27/07:00am 5.0 0.6 2.6 84 1.0 SE 15 22 8 12 1030.9 1030.3 0.4
27/06:30am 4.9 0.5 2.8 86 0.9 ESE 15 20 8 11 1030.6 1030.0 0.4
27/06:00am 5.0 -0.1 2.9 86 0.9 ESE 19 22 10 12 1030.4 1029.8 0.4
27/05:30am 5.2 0.5 3.3 87 0.8 ESE 17 20 9 11 1030.4 1029.8 0.4
27/05:00am 5.6 0.5 3.3 85 1.0 ESE 19 22 10 12 1030.5 1029.9 0.4
27/04:30am 5.4 0.8 3.5 87 0.8 ESE 17 19 9 10 1030.6 1030.0 0.4
27/04:00am 5.1 0.9 3.7 91 0.6 ESE 15 17 8 9 1030.6 1030.0 0.4
27/03:30am 5.0 1.2 3.8 92 0.5 ESE 13 15 7 8 1030.6 1030.0 0.4
27/03:00am 5.2 1.4 4.1 93 0.5 ESE 13 17 7 9 1030.6 1030.0 0.4
27/02:30am 6.0 1.5 4.4 89 0.7 SE 17 19 9 10 1031.0 1030.4 0.4
27/02:00am 6.6 2.9 4.3 85 1.0 SE 13 17 7 9 1031.0 1030.4 0.4
27/01:30am 7.2 3.5 4.5 83 1.2 ESE 13 15 7 8 1030.9 1030.3 0.4
27/01:00am 8.3 4.7 4.8 78 1.6 ESE 13 17 7 9 1030.9 1030.3 0.4
27/12:30am 8.8 4.8 4.9 76 1.8 E 15 17 8 9 1030.8 1030.2 0.4
27/12:00am 9.2 5.6 5.1 75 1.9 E 13 17 7 9 1030.7 1030.1 0.4
 
Date/Time
CST
Temp
°C
App
Temp
°C
Dew
Point
Rel
Hum
%
Delta-T
°C
Wind Press
QNH
hPa
Press
MSL
hPa
Rain
since 9 am
mm
Dir
 
Spd
km/h
Gust
km/h
Spd
kts
Gust
kts
26/11:30pm 8.8 4.8 5.1 77 1.7 ESE 15 17 8 9 1030.8 1030.2 0.4
26/11:00pm 9.0 5.4 5.1 76 1.8 ESE 13 15 7 8 1030.8 1030.2 0.4
26/10:30pm 9.6 5.6 5.1 73 2.1 SE 15 19 8 10 1030.7 1030.1 0.4
26/10:00pm 9.6 5.6 5.1 73 2.1 SE 15 17 8 9 1030.5 1029.9 0.4
26/09:30pm 9.7 5.8 5.4 74 2.0 ESE 15 19 8 10 1030.3 1029.7 0.4
26/09:00pm 9.7 6.3 5.7 76 1.9 ESE 13 15 7 8 1030.2 1029.6 0.4
26/08:30pm 10.2 6.7 5.5 72 2.2 ESE 13 15 7 8 1029.9 1029.3 0.4
26/08:00pm 11.1 7.6 5.4 68 2.7 SE 13 17 7 9 1029.2 1028.6 0.4
26/07:30pm 11.6 8.1 5.3 65 3.0 SE 13 15 7 8 1028.7 1028.1 0.4
26/07:00pm 12.8 9.6 5.3 60 3.6 SE 11 15 6 8 1028.3 1027.6 0.4
26/06:30pm 14.2 10.7 5.3 55 4.3 SE 13 19 7 10 1028.0 1027.3 0.4
26/06:00pm 15.4 11.0 4.8 49 5.1 SE 17 24 9 13 1027.6 1027.0 0.4
26/05:30pm 15.8 10.8 4.6 47 5.4 SE 20 26 11 14 1027.4 1026.8 0.4
26/05:00pm 16.5 12.1 5.0 46 5.6 SE 17 26 9 14 1027.3 1026.7 0.4
26/04:30pm 15.9 11.0 5.0 48 5.3 SE 20 30 11 16 1026.9 1026.2 0.4
26/04:00pm 15.5 10.2 5.0 49 5.1 SE 22 32 12 17 1026.9 1026.2 0.4
26/03:30pm 15.6 10.8 5.4 50 5.0 SE 20 30 11 16 1027.0 1026.4 0.4
26/03:00pm 15.1 10.2 5.2 51 4.8 ESE 20 28 11 15 1026.5 1025.8 0.4
26/02:30pm 14.9 10.1 4.9 51 4.8 SE 19 26 10 14 1027.0 1026.4 0.4
26/02:00pm 14.6 9.8 4.8 52 4.7 SE 19 26 10 14 1027.7 1027.1 0.4
26/01:30pm 15.0 10.1 5.1 51 4.8 SE 20 32 11 17 1027.8 1027.2 0.4
26/01:00pm 14.0 8.7 4.8 54 4.4 SE 22 32 12 17 1028.2 1027.5 0.4
26/12:30pm 13.4 7.3 5.0 57 4.0 SE 26 35 14 19 1028.5 1027.9 0.4
26/12:00pm 13.7 7.3 5.2 56 4.1 SE 28 35 15 19 1028.5 1027.9 0.4
26/11:30am 12.5 6.0 4.9 60 3.6 SE 28 39 15 21 1029.0 1028.4 0.4
26/11:00am 11.4 5.8 5.3 66 2.9 SSE 24 32 13 17 1029.5 1028.9 0.4
26/10:30am 10.0 5.4 6.7 80 1.6 SE 20 28 11 15 1029.3 1028.7 0.4
26/10:00am 9.9 6.1 7.4 84 1.2 SSE 17 24 9 13 1029.8 1029.1 0.2
26/09:30am 9.7 5.3 7.5 86 1.1 SSE 20 28 11 15 1028.7 1028.1 0.2
26/09:00am 9.8 5.5 8.0 88 0.9 SSE 20 28 11 15 1028.7 1028.1 0.2
26/08:30am 9.9 5.8 7.9 87 1.0 SSE 19 26 10 14 1028.3 1027.6 0.2
26/08:00am 10.0 6.9 7.3 83 1.3 SSE 13 17 7 9 1028.1 1027.4 0.2
26/07:30am 10.1 7.3 6.8 80 1.6 SE 11 13 6 7 1027.8 1027.2 0.2
26/07:00am 10.2 6.9 6.5 78 1.8 ESE 13 17 7 9 1027.0 1026.4 0.2
26/06:30am 10.2 7.3 6.5 78 1.8 ESE 11 15 6 8 1027.2 1026.6 0.2
26/06:00am 10.3 7.0 6.3 76 1.9 ESE 13 17 7 9 1026.3 1025.6 0.2
26/05:30am 10.3 7.1 6.8 79 1.7 SE 13 17 7 9 1026.5 1025.8 0.2
26/05:00am 10.2 7.1 7.1 81 1.5 SE 13 17 7 9 1026.7 1026.0 0.2
26/04:30am 10.0 7.1 8.0 87 1.0 SSE 13 19 7 10 1026.4 1025.7 0.2
26/04:00am 10.1 6.8 7.9 86 1.1 SSE 15 20 8 11 1026.5 1025.8 0.2
26/03:30am 10.1 6.5 8.5 90 0.8 SSE 17 22 9 12 1026.4 1025.7 0.2
26/03:00am 10.3 7.0 9.7 96 0.3 S 17 22 9 12 1026.4 1025.7 0.2
26/02:30am 10.5 7.6 9.7 95 0.4 S 15 19 8 10 1026.5 1025.8 0.2
26/02:00am 10.7 8.6 9.7 93 0.5 S 11 15 6 8 1026.2 1025.5 0.2
26/01:30am 10.8 8.3 9.6 92 0.6 SSE 13 15 7 8 1025.7 1025.1 0.2
26/01:00am 10.8 8.3 9.6 92 0.6 SE 13 17 7 9 1025.6 1025.0 0.2
26/12:30am 10.8 8.3 9.6 92 0.6 SE 13 17 7 9 1025.9 1025.3 0.2
26/12:00am 10.9 8.0 9.5 91 0.7 SSE 15 19 8 10 1026.0 1025.4 0.2
 
Date/Time
CST
Temp
°C
App
Temp
°C
Dew
Point
Rel
Hum
%
Delta-T
°C
Wind Press
QNH
hPa
Press
MSL
hPa
Rain
since 9 am
mm
Dir
 
Spd
km/h
Gust
km/h
Spd
kts
Gust
kts
25/11:30pm 11.2 8.6 9.5 89 0.9 SSE 13 19 7 10 1026.6 1025.9 0.2
25/11:00pm 11.3 9.2 9.8 90 0.8 SE 11 17 6 9 1026.6 1025.9 0.2
25/10:30pm 11.4 8.9 9.7 89 0.9 SSE 13 15 7 8 1026.5 1025.8 0.2
25/10:00pm 11.3 8.8 9.6 89 0.9 SE 13 17 7 9 1026.2 1025.5 0.2
25/09:30pm 11.4 8.8 9.5 88 1.0 SE 13 17 7 9 1025.8 1025.2 0.2
25/09:00pm 11.5 8.9 9.4 87 1.1 SE 13 17 7 9 1025.7 1025.1 0.2
25/08:30pm 11.6 8.6 9.3 86 1.2 SE 15 20 8 11 1025.7 1025.1 0.2
25/08:00pm 11.7 8.7 9.2 85 1.3 SSE 15 19 8 10 1025.5 1024.9 0.2
25/07:30pm 11.8 9.3 9.7 87 1.1 SSE 13 17 7 9 1025.6 1025.0 0.2
25/07:00pm 12.0 9.1 9.7 86 1.2 SSE 15 19 8 10 1024.6 1023.9 0.2
25/06:30pm 12.3 9.3 9.4 82 1.5 SSE 15 19 8 10 1024.6 1023.9 0.2
25/06:00pm 12.7 10.1 9.4 80 1.7 S 13 17 7 9 1024.6 1023.9 0.2
25/05:30pm 12.8 9.8 9.3 79 1.8 SSE 15 20 8 11 1024.1 1023.5 0.2
25/05:00pm 12.9 9.6 9.7 81 1.7 SSE 17 22 9 12 1023.5 1022.8 0.2
25/04:30pm 13.4 9.7 9.4 77 2.1 SSE 19 24 10 13 1023.8 1023.1 0.2
25/04:00pm 13.2 9.5 9.4 78 2.0 SSE 19 24 10 13 1024.1 1023.5 0.2
25/03:30pm 13.0 9.6 9.2 78 2.0 SSE 17 22 9 12 1023.7 1023.0 0.2
25/03:00pm 13.2 10.1 9.0 75 2.2 SSE 15 20 8 11 1024.2 1023.6 0.2
25/02:30pm 13.3 10.2 8.9 74 2.3 SE 15 19 8 10 1023.6 1022.9 0.2
25/02:00pm 12.8 9.3 8.9 77 2.0 SE 17 22 9 12 1023.3 1022.6 0.2
25/01:30pm 13.2 9.6 8.5 73 2.4 SE 17 24 9 13 1023.7 1023.0 0.2
25/01:00pm 12.6 9.3 8.1 74 2.3 SSE 15 22 8 12 1025.0 1024.3 0.2
25/12:30pm 12.2 9.3 8.0 75 2.1 SE 13 19 7 10 1025.1 1024.4 0.2
25/12:00pm 12.4 9.3 7.4 71 2.5 SE 13 17 7 9 1025.8 1025.2 0.0
25/11:30am 12.4 8.9 7.2 70 2.6 SE 15 20 8 11 1025.0 1024.3 0.0

Other Formats:

Comma delimited format used in spreadsheet applications
http://www.bom.gov.au/fwo/IDD60801/IDD60801.94461.axf

JavaScript Object Notation format (JSON) in row-major order
http://www.bom.gov.au/fwo/IDD60801/IDD60801.94461.json